Anza Borrego Desert Research Center, California Weather observations

Data are for 10 minute period ending at time listed.
 Day   Time   Solar   Ave.   Ave.  Ave.  Vector  Max.   Baro.   Total    
  of    of     Rad.   Air    Rel.  Wind   Wind   Wind  Press.  Precip.   
Year   Day            Temp.  Hum.  Speed  Dir.   Gust                    
2014   (PST)  Kw/m2    F      %     mph   deg.    mph    mb.     in.     
-------------------------------------------------------------------------
 330   22:20   0.00   59.9    18    3.6   221     4.5   501.7    0.00 
 330   22:30   0.00   58.7    18    4.0   263     6.0   501.7    0.00 
 330   22:40   0.00   56.5    20    4.9   260     6.4   501.7    0.00 
 330   22:50   0.00   57.1    19    4.7   265     6.3   501.6    0.00 
 330   23:00   0.00   58.1    19    3.5   261     4.7   501.6    0.00 
 330   23:10   0.00   58.6    19    2.0   266     2.9   501.6    0.00 
 330   23:20   0.00   58.4    19    2.2   268     3.7   501.7    0.00 
 330   23:30   0.00   57.2    19    3.7   273     5.2   501.7    0.00 
 330   23:40   0.00   58.1    19    4.3   244     6.2   501.6    0.00 
 330   23:50   0.00   59.9    18    2.2   258     3.2   501.6    0.00 
 331    0:00   0.00   58.7    18    2.7   256     3.7   501.7    0.00 
 331    0:10   0.00   57.8    20    3.4   254     5.0   501.7    0.00 
 331    0:20   0.00   58.3    19    2.7   255     3.9   501.6    0.00 
 331    0:30   0.00   57.5    20    2.7   264     4.7   501.6    0.00 
 331    0:40   0.00   57.5    19    0.7   271     2.0   501.6    0.00 
 331    0:50   0.00   55.8    20    1.1   276     2.8   501.6    0.00 
 331    1:00   0.00   55.9    20    0.8   303     1.8   501.6    0.00 
 331    1:10   0.00   55.1    21    0.4   272     1.7   501.6    0.00 
 331    1:20   0.00   55.3    20    1.9   267     2.6   501.6    0.00 
 331    1:30   0.00   55.0    21    1.6   289     2.3   501.6    0.00 
 331    1:40   0.00   54.1    21    2.5   247     4.1   501.6    0.00 
 331    1:50   0.00   53.7    22    2.8   228     5.2   501.6    0.00 
 331    2:00   0.00   55.5    21    2.9   224     3.9   501.6    0.00 
 331    2:10   0.00   55.7    21    4.2   238     5.9   501.6    0.00 
 331    2:20   0.00   56.6    21    5.1   236     6.5   501.6    0.00 
 331    2:30   0.00   59.1    20    3.9   214     5.4   501.6    0.00 
 331    2:40   0.00   59.3    19    3.1   241     5.5   501.6    0.00 
 331    2:50   0.00   59.1    19    2.8   286     4.5   501.6    0.00 
 331    3:00   0.00   57.0    20    1.4   303     2.3   501.6    0.00 
 331    3:10   0.00   54.8    22    1.8   263     3.9   501.6    0.00 
 331    3:20   0.00   55.3    22    2.6   247     4.3   501.6    0.00 
 331    3:30   0.00   57.3    20    3.9   229     4.7   501.6    0.00 
 331    3:40   0.00   56.1    21    4.2   216     4.9   501.6    0.00 
 331    3:50   0.00   58.8    19    3.5   220     4.8   501.6    0.00 
 331    4:00   0.00   57.5    20    2.7   220     4.3   501.6    0.00 
 331    4:10   0.00   57.4    20    1.6   251     2.5   501.6    0.00 
 331    4:20   0.00   59.3    18    3.0   242     5.1   501.6    0.00 
 331    4:30   0.00   57.5    20    5.2   248     6.9   501.6    0.00 
 331    4:40   0.00   59.1    19    5.3   259     6.9   501.6    0.00 
 331    4:50   0.00   60.0    18    2.7   257     4.5   501.6    0.00 
 331    5:00   0.00   60.7    18    1.5   240     3.1   501.6    0.00 
 331    5:10   0.00   59.5    18    3.6   255     4.7   501.6    0.00 
 331    5:20   0.00   57.8    19    2.7   237     4.1   501.6    0.00 
 331    5:30   0.00   56.1    20    2.5   303     4.8   501.6    0.00 
 331    5:40   0.00   57.3    20    1.5   322     2.4   501.6    0.00 
 331    5:50   0.00   57.8    19    1.1   222     2.3   501.6    0.00 
 331    6:00   0.00   55.1    21    4.3   228     8.0   501.6    0.00 
 331    6:10   0.00   57.0    20    6.3   243     8.1   501.6    0.00 
 331    6:20   0.00   58.9    19    3.8   211     6.1   501.6    0.00 
 331    6:30   0.00   59.7    18    2.0   253     3.9   501.6    0.00 
 331    6:40   0.00   59.2    18    2.6   334     3.7   501.6    0.00 
 331    6:50   0.02   59.4    18    2.4   285     3.9   501.6    0.00 
 331    7:00   0.04   59.2    18    1.1   307     2.2   501.6    0.00 
 331    7:10   0.07   60.9    18    1.6   251     2.4   501.6    0.00 
 331    7:20   0.10   63.1    17    3.7   226     4.6   501.7    0.00 
 331    7:30   0.13   65.7    16    3.5   222     4.4   501.7    0.00 
 331    7:40   0.16   68.4    15    2.3   208     4.2   501.7    0.00 
 331    7:50   0.19   71.2    13    0.9   236     1.6   501.8    0.00 
 331    8:00   0.22   72.6    13    1.8   262     2.5   501.8    0.00 
 331    8:10   0.25   73.4    12    2.7   240     3.4   501.8    0.00 
 331    8:20   0.28   75.1    12    2.5   217     3.0   501.8    0.00 
 331    8:30   0.31   76.8    11    2.1   192     3.0   501.8    0.00 
 331    8:40   0.34   78.4    10    2.0   191     2.9   501.8    0.00 
 331    8:50   0.36   78.8    10    1.8   147     2.5   501.8    0.00 
 331    9:00   0.39   78.7    11    1.6   100     2.6   501.8    0.00 
 331    9:10   0.41   77.1    13    1.9    87     3.4   501.8    0.00 
 331    9:20   0.44   76.7    13    2.1    56     3.2   501.8    0.00 
 331    9:30   0.46   76.1    13    2.2    61     3.4   501.9    0.00 
 331    9:40   0.48   76.4    13    2.1    57     3.1   502.0    0.00 
 331    9:50   0.50   77.5    12    0.7    64     2.0   502.0    0.00 
 331   10:00   0.52   79.5    11    0.6    95     2.1   502.0    0.00 
 331   10:10   0.54   80.2    11    1.1    70     2.9   502.0    0.00 
 331   10:20   0.55   80.7    11    1.8    75     3.1   502.0    0.00 
 331   10:30   0.57   80.7    11    2.7    92     4.0   502.0    0.00 
 331   10:40   0.58   80.7    11    3.2    79     4.9   502.0    0.00 
 331   10:50   0.59   80.6    11    3.4    87     5.1   502.0    0.00 
 331   11:00   0.60   80.7    10    3.5    83     5.3   502.0    0.00 
 331   11:10   0.60   81.4    10    3.1    88     4.8   502.0    0.00 
 331   11:20   0.61   81.7    10    3.2    75     5.6   502.0    0.00 
 331   11:30   0.61   82.4    10    3.3   104     5.4   502.0    0.00 
 331   11:40   0.61   83.1     9    3.9   120     6.9   502.0    0.00 
 331   11:50   0.61   83.1     9    3.9   115     5.9   502.0    0.00 
 331   12:00   0.61   83.6     9    3.1   107     6.5   502.0    0.00 
 331   12:10   0.60   83.7     9    4.2   114     6.9   502.1    0.00 
 331   12:20   0.59   83.7     9    3.4   140     8.6   502.1    0.00 
 331   12:30   0.59   84.0     9    5.0   117     9.1   502.1    0.00 
 331   12:40   0.58   83.3     9    5.3    93     8.8   502.1    0.00 
 331   12:50   0.54   83.5     9    4.7   105     9.0   502.1    0.00 
 331   13:00   0.56   83.9     9    5.9   128     8.8   502.1    0.00 
 331   13:10   0.54   83.7     9    5.1   119     8.8   502.1    0.00 
 331   13:20   0.51   83.9     9    3.6   102     7.3   502.1    0.00 
 331   13:30   0.49   84.3     9    4.7   113     7.8   502.1    0.00 
 331   13:40   0.49   83.7     9    4.8    90     6.9   502.1    0.00 
 331   13:50   0.46   84.2     9    4.9   114     9.1   502.1    0.00 
 331   14:00   0.44   83.9     9    5.0   109     8.0   502.1    0.00 
 331   14:10   0.39   84.1     9    4.4   102     8.4   502.1    0.00 
 331   14:20   0.39   83.8     9    5.2   136     7.1   502.1    0.00 
 331   14:30   0.36   83.4     9    5.7   122     8.2   502.1    0.00 
 331   14:40   0.33   83.5     9    4.9   114     8.4   502.1    0.00 
 331   14:50   0.30   83.8     9    5.4   106     8.0   502.1    0.00 
 331   15:00   0.28   83.6     9    5.2   132     7.5   502.0    0.00 
 331   15:10   0.24   83.8     9    3.9   135     6.3   502.0    0.00 
 331   15:20   0.20   83.6    10    4.9   111     7.0   502.0    0.00 
 331   15:30   0.18   83.0    10    4.2   110     6.9   502.0    0.00 
 331   15:40   0.14   82.8    10    4.2   111     6.3   502.0    0.00 
 331   15:50   0.12   81.9    10    4.6   120     6.3   502.0    0.00 
 331   16:00   0.04   80.9    10    3.1   206     5.8   502.0    0.00 
 331   16:10   0.01   76.7    11    4.3   240     6.0   502.0    0.00 
 331   16:20   0.01   74.4    12    5.6   245     6.6   501.9    0.00 
 331   16:30   0.01   73.5    13    6.0   238     7.2   501.8    0.00 
 331   16:40   0.00   73.1    13    6.6   241     7.5   501.8    0.00 
 331   16:50   0.00   70.9    14    6.5   243     8.0   501.8    0.00 
 331   17:00   0.00   70.5    14    6.7   233     8.1   501.8    0.00 
 331   17:10   0.00   69.3    14    5.9   238     7.4   501.8    0.00 
 331   17:20   0.00   68.9    15    6.7   232     8.3   501.8    0.00 
 331   17:30   0.00   68.7    15    5.3   225     7.5   501.8    0.00 
 331   17:40   0.00   68.2    15    6.8   240     8.4   501.8    0.00 
 331   17:50   0.00   69.5    15    6.8   240     8.3   501.8    0.00 
 331   18:00   0.00   68.1    15    3.8   256     6.1   501.8    0.00 
 331   18:10   0.00   66.8    16    3.6   261     5.1   501.8    0.00 
 331   18:20   0.00   67.7    15    3.2   251     4.2   501.8    0.00 
 331   18:30   0.00   67.8    16    4.9   253     6.7   501.8    0.00 
 331   18:40   0.00   67.3    16    4.4   259     5.8   501.8    0.00 
 331   18:50   0.00   66.1    16    4.6   255     5.5   501.8    0.00 
 331   19:00   0.00   64.9    17    5.3   251     6.7   501.8    0.00 
 331   19:10   0.00   65.8    17    4.7   254     6.7   501.8    0.00 
 331   19:20   0.00   65.4    17    3.4   251     4.7   501.8    0.00 
 331   19:30   0.00   64.4    17    4.0   252     4.9   501.8    0.00 
 331   19:40   0.00   64.6    17    3.7   252     4.7   501.8    0.00 
 331   19:50   0.00   64.4    17    3.4   242     4.6   501.8    0.00 
 331   20:00   0.00   64.0    18    3.9   240     5.6   501.8    0.00 
 331   20:10   0.00   65.6    17    5.5   235     6.6   501.8    0.00 
 331   20:20   0.00   65.4    17    5.3   233     6.3   501.8    0.00 
 331   20:30   0.00   64.8    17    5.6   234     8.0   501.8    0.00 
 331   20:40   0.00   66.3    16    5.4   227     7.5   501.8    0.00 
 331   20:50   0.00   64.3    17    6.7   240     8.1   501.8    0.00 
 331   21:00   0.00   64.0    18    6.3   252     8.0   501.8    0.00 
 331   21:10   0.00   65.1    17    5.5   248     7.2   501.8    0.00 
 331   21:20   0.00   62.6    18    5.3   262     6.8   501.8    0.00 
 331   21:30   0.00   63.8    18    1.2   322     2.3   501.8    0.00 
 331   21:40   0.00   65.3    17    0.7   280     1.6   501.8    0.00 
 331   21:50   0.00   65.5    17    0.1   211     0.9   501.8    0.00 
 331   22:00   0.00   63.3    18    1.1   223     2.7   501.8    0.00 
 331   22:10   0.00   62.2    18    1.9   236     2.6   501.8    0.00 

Return to Anza Borrego Desert Research Center graphs page.


Western Regional Climate Center,wrcc@dri.edu